Aviation Digital Data Service (ADDS)

Output produced by METARs form (1359 UTC 25 September 2016)
found at http://aviationweather.gov/adds/metars/
 
KAEX 251125Z 2512/2612 00000KT 5SM BR SCT200 
     FM251400 VRB03KT P6SM SKC 
     FM251800 14006KT P6SM SCT040 
     FM260000 VRB03KT P6SM FEW060 SCT200 
     FM260800 00000KT 5SM BR SCT200